Time;durP1;ratioP1;P1;durP2;ratioP2;P2;SDS_P1;SDS_P2;PMS_P1;PMS_P2;Temp;Humidity;BMP_temperature;BMP_pressure;BME280_temperature;BME280_humidity;BME280_pressure;Samples;Min_cycle;Max_cycle;Signal;HPM_P1;HPM_P2
2023/01/28 00:00:24;;;;;;;21.83;14.50;;;;;;;1.02;72.54;96583.53;4988008;28;20279;-69
2023/01/28 00:02:50;;;;;;;19.57;14.37;;;;;;;0.82;71.58;96575.84;4998574;28;20633;-69
2023/01/28 00:05:16;;;;;;;24.73;14.20;;;;;;;0.72;72.22;96574.16;5005872;28;20204;-69
2023/01/28 00:07:41;;;;;;;17.87;12.63;;;;;;;0.82;72.19;96579.28;5006196;28;20450;-68
2023/01/28 00:10:07;;;;;;;24.87;14.20;;;;;;;0.92;71.47;96577.56;4998490;28;20208;-67
2023/01/28 00:12:32;;;;;;;23.07;14.57;;;;;;;0.77;71.70;96568.09;5003183;28;20279;-70
2023/01/28 00:14:58;;;;;;;21.00;13.90;;;;;;;0.96;71.39;96570.63;4999854;28;20545;-70
2023/01/28 00:17:23;;;;;;;22.80;15.20;;;;;;;0.95;71.18;96567.19;5004335;28;20756;-69
2023/01/28 00:19:49;;;;;;;19.50;15.57;;;;;;;1.13;71.06;96563.66;4998476;28;20296;-68
2023/01/28 00:22:14;;;;;;;20.60;14.60;;;;;;;1.17;70.20;96552.44;5004516;28;20217;-70
2023/01/28 00:24:40;;;;;;;20.90;14.10;;;;;;;1.11;70.05;96559.38;4993532;28;20204;-69
2023/01/28 00:27:05;;;;;;;20.20;13.57;;;;;;;1.09;70.70;96568.84;4995064;28;20710;-68
2023/01/28 00:29:30;;;;;;;23.50;14.90;;;;;;;1.06;70.29;96559.38;5003978;28;20211;-69
2023/01/28 00:31:56;;;;;;;25.83;15.07;;;;;;;0.78;72.08;96562.09;5001830;28;20207;-69
2023/01/28 00:34:22;;;;;;;23.03;15.40;;;;;;;0.75;72.33;96559.50;5007082;28;20271;-69
2023/01/28 00:36:56;;;;;;;21.57;14.30;;;;;;;0.77;72.41;96557.78;4991956;28;20679;-68
2023/01/28 00:39:24;;;;;;;22.87;15.27;;;;;;;0.78;71.69;96564.69;4995060;28;20190;-69
2023/01/28 00:41:50;;;;;;;22.67;14.57;;;;;;;0.84;72.13;96569.81;4996343;28;20443;-70
2023/01/28 00:44:16;;;;;;;22.20;13.90;;;;;;;0.96;71.07;96568.06;5002038;28;20812;-68
2023/01/28 00:46:41;;;;;;;24.77;16.67;;;;;;;1.13;70.18;96571.41;5004671;28;20450;-69
2023/01/28 00:49:07;;;;;;;19.23;14.33;;;;;;;0.87;71.04;96578.41;5005308;28;20181;-69
2023/01/28 00:51:32;;;;;;;23.77;15.53;;;;;;;0.94;70.52;96572.34;4996643;28;20187;-68
2023/01/28 00:53:58;;;;;;;23.30;14.30;;;;;;;1.15;70.31;96567.09;4994802;28;20284;-68
2023/01/28 00:56:23;;;;;;;24.43;14.77;;;;;;;1.11;70.46;96577.47;5001932;28;20578;-69
2023/01/28 00:58:49;;;;;;;20.90;13.63;;;;;;;1.05;70.53;96568.88;5002865;28;20271;-68
2023/01/28 01:01:25;;;;;;;23.13;14.07;;;;;;;1.01;70.47;96577.50;4995878;28;20214;-68
2023/01/28 01:04:04;;;;;;;21.03;12.97;;;;;;;1.05;70.06;96574.03;5002747;28;20181;-68
2023/01/28 01:06:35;;;;;;;20.00;13.10;;;;;;;0.99;70.52;96568.91;4996459;28;20431;-69
2023/01/28 01:09:02;;;;;;;19.47;13.20;;;;;;;1.00;70.42;96565.44;4999884;28;20452;-68
2023/01/28 01:11:28;;;;;;;21.97;14.27;;;;;;;1.18;69.92;96576.56;5004276;28;20494;-69
2023/01/28 01:13:55;;;;;;;18.87;12.93;;;;;;;0.95;71.02;96569.78;4999528;28;20436;-67
2023/01/28 01:16:35;;;;;;;19.13;12.10;;;;;;;1.07;70.25;96570.59;5001537;28;20850;-68
2023/01/28 01:19:00;;;;;;;20.07;11.77;;;;;;;0.70;71.87;96576.72;4999788;28;20577;-68
2023/01/28 01:21:27;;;;;;;17.77;13.90;;;;;;;0.54;72.37;96575.03;5003994;28;20968;-67
2023/01/28 01:23:54;;;;;;;21.13;13.20;;;;;;;0.26;73.62;96571.63;4990979;28;20242;-67
2023/01/28 01:26:19;;;;;;;19.40;13.33;;;;;;;0.58;72.73;96582.78;4993057;28;21257;-69
2023/01/28 01:28:45;;;;;;;19.70;14.13;;;;;;;0.83;72.54;96580.16;4996630;28;20458;-70
2023/01/28 01:31:13;;;;;;;22.07;13.37;;;;;;;1.03;71.12;96577.50;5001041;28;20211;-70
2023/01/28 01:33:40;;;;;;;22.67;13.20;;;;;;;1.03;70.89;96580.94;5003711;28;20175;-69
2023/01/28 01:36:06;;;;;;;18.60;11.47;;;;;;;0.63;72.33;96590.53;4995500;28;20809;-69
2023/01/28 01:38:32;;;;;;;18.17;12.50;;;;;;;0.74;72.51;96585.34;4997880;28;20447;-68
2023/01/28 01:40:58;;;;;;;16.30;12.47;;;;;;;0.82;71.64;96586.16;4999390;28;20489;-68
2023/01/28 01:43:24;;;;;;;21.07;13.13;;;;;;;0.90;71.38;96584.44;5004693;28;20179;-69
2023/01/28 01:45:55;;;;;;;21.40;12.97;;;;;;;0.98;71.20;96587.00;5005142;28;20455;-68
2023/01/28 01:48:25;;;;;;;22.13;13.13;;;;;;;0.90;71.31;96594.78;4993536;28;20442;-69
2023/01/28 01:50:58;;;;;;;16.30;11.90;;;;;;;0.77;71.64;96599.09;4998555;28;20560;-67
2023/01/28 01:53:24;;;;;;;21.30;13.93;;;;;;;0.81;71.42;96597.38;5003270;28;20438;-67
2023/01/28 01:55:51;;;;;;;19.40;12.57;;;;;;;0.67;71.77;96597.41;5003801;28;20545;-70
2023/01/28 01:58:20;;;;;;;16.87;11.70;;;;;;;0.73;71.76;96602.56;5001961;28;20445;-67
2023/01/28 02:00:46;;;;;;;20.40;12.97;;;;;;;0.84;71.80;96603.38;4993269;28;22377;-69
2023/01/28 02:03:11;;;;;;;17.20;11.70;;;;;;;0.87;72.06;96602.50;4998544;28;20495;-68
2023/01/28 02:05:38;;;;;;;17.97;12.10;;;;;;;0.74;72.35;96600.84;5002624;28;20204;-68
2023/01/28 02:08:21;;;;;;;20.80;12.30;;;;;;;1.04;70.94;96598.19;5004955;28;20195;-68
2023/01/28 02:10:52;;;;;;;17.93;12.07;;;;;;;0.96;71.11;96606.81;4991008;28;20495;-68
2023/01/28 02:13:18;;;;;;;17.13;10.90;;;;;;;1.09;71.09;96597.28;4998600;28;20442;-68
2023/01/28 02:15:43;;;;;;;21.60;14.20;;;;;;;0.75;72.11;96602.56;5000359;28;20438;-68
2023/01/28 02:18:09;;;;;;;16.23;11.77;;;;;;;0.94;71.58;96611.97;5000239;28;21301;-68
2023/01/28 02:20:37;;;;;;;14.70;10.47;;;;;;;0.94;70.68;96606.81;4988477;28;20550;-69
2023/01/28 02:23:27;;;;;;;12.20;9.17;;;;;;;0.59;72.26;96606.88;4997783;28;20216;-68
2023/01/28 02:26:14;;;;;;;16.10;11.50;;;;;;;0.27;73.32;96609.50;5001515;28;20560;-67
2023/01/28 02:28:58;;;;;;;18.30;12.90;;;;;;;0.38;73.46;96602.63;4993597;28;21162;-67
2023/01/28 02:31:33;;;;;;;18.13;11.10;;;;;;;0.34;73.22;96603.47;4995525;28;20513;-68
2023/01/28 02:34:23;;;;;;;16.17;11.47;;;;;;;0.32;73.64;96605.19;4990519;28;20443;-66
2023/01/28 02:36:59;;;;;;;14.03;10.20;;;;;;;0.41;73.53;96611.22;4994923;28;20423;-68
2023/01/28 02:39:48;;;;;;;17.90;11.27;;;;;;;0.48;72.83;96612.06;4997798;28;20839;-69
2023/01/28 02:42:30;;;;;;;24.63;11.33;;;;;;;0.68;72.57;96614.63;4991419;28;20463;-68
2023/01/28 02:44:55;;;;;;;14.13;12.30;;;;;;;0.57;72.35;96611.22;4983758;28;20589;-69
2023/01/28 02:50:08;;;;;;;17.60;9.70;;;;;;;0.52;71.86;96603.47;5000904;28;20242;-69
2023/01/28 02:55:31;;;;;;;18.73;10.40;;;;;;;0.81;71.00;96600.81;4996154;28;20434;-68
2023/01/28 02:58:05;;;;;;;14.97;9.30;;;;;;;0.79;70.16;96593.94;4996978;28;21193;-69
2023/01/28 03:00:53;;;;;;;13.60;9.73;;;;;;;1.03;70.45;96599.03;5002995;28;20466;-69
2023/01/28 03:03:33;;;;;;;14.20;9.63;;;;;;;0.95;70.64;96592.19;5000610;28;20431;-67
2023/01/28 03:06:09;;;;;;;14.73;10.40;;;;;;;0.78;71.32;96598.25;4999826;28;20459;-67
2023/01/28 03:39:02;;;;;;;16.27;10.50;;;;;;;0.49;71.85;96612.94;5005517;28;20457;-69
2023/01/28 03:41:27;;;;;;;14.27;9.93;;;;;;;0.62;72.25;96612.06;5004088;28;20459;-69
2023/01/28 03:43:53;;;;;;;12.13;9.30;;;;;;;0.55;71.73;96620.69;4991375;28;20181;-70
2023/01/28 03:46:19;;;;;;;11.40;8.23;;;;;;;0.68;71.53;96622.34;5001571;28;20288;-68
2023/01/28 03:48:44;;;;;;;11.73;9.23;;;;;;;0.79;70.97;96628.38;4999075;28;20457;-67
2023/01/28 03:51:10;;;;;;;13.73;9.70;;;;;;;0.40;72.67;96624.09;5004173;28;21058;-67
2023/01/28 03:53:37;;;;;;;16.47;10.63;;;;;;;0.29;74.00;96626.72;5006936;28;20180;-68
2023/01/28 03:56:02;;;;;;;14.97;10.87;;;;;;;0.39;73.65;96623.25;4992733;28;20661;-68
2023/01/28 03:58:44;;;;;;;13.20;9.23;;;;;;;0.49;73.46;96629.28;4996627;28;20450;-67
2023/01/28 04:01:10;;;;;;;15.67;10.33;;;;;;;0.48;73.44;96630.16;5000308;28;20618;-67
2023/01/28 04:03:36;;;;;;;14.40;9.67;;;;;;;0.74;72.66;96634.44;5005685;28;20447;-68
2023/01/28 04:06:06;;;;;;;13.40;9.90;;;;;;;0.64;73.04;96636.16;5000580;28;20291;-67
2023/01/28 04:08:32;;;;;;;15.03;10.27;;;;;;;0.54;73.26;96635.28;4993827;28;20265;-68
2023/01/28 04:11:14;;;;;;;15.37;9.00;;;;;;;0.70;72.77;96627.53;4996763;28;20497;-67
2023/01/28 04:13:43;;;;;;;21.23;10.43;;;;;;;0.67;73.47;96632.72;5005223;28;20262;-68
2023/01/28 04:16:10;;;;;;;17.93;11.83;;;;;;;0.45;74.48;96622.41;5005644;28;20446;-67
2023/01/28 04:18:35;;;;;;;19.20;10.63;;;;;;;0.52;74.27;96631.88;4997784;28;20547;-68
2023/01/28 04:21:00;;;;;;;15.47;10.50;;;;;;;0.51;74.81;96635.28;5001604;28;20483;-69
2023/01/28 04:23:28;;;;;;;16.00;10.50;;;;;;;0.47;75.35;96640.47;5006139;28;20705;-69
2023/01/28 04:25:54;;;;;;;13.70;9.27;;;;;;;0.50;74.22;96640.47;5004838;28;20291;-70
2023/01/28 04:28:19;;;;;;;13.83;10.57;;;;;;;0.44;76.17;96645.63;4997699;28;21061;-68
2023/01/28 04:30:45;;;;;;;13.27;10.00;;;;;;;0.55;75.30;96641.34;4998163;28;20935;-69
2023/01/28 04:33:10;;;;;;;15.33;10.40;;;;;;;0.30;76.06;96648.22;5000003;28;20296;-68
2023/01/28 04:35:36;;;;;;;17.27;11.00;;;;;;;0.51;75.58;96645.63;5004092;28;20264;-68
2023/01/28 04:38:01;;;;;;;16.33;10.10;;;;;;;0.25;76.14;96661.13;5004552;28;20191;-69
2023/01/28 04:40:26;;;;;;;14.47;10.20;;;;;;;0.26;77.07;96656.81;5004308;28;20203;-69
2023/01/28 04:42:53;;;;;;;26.83;11.23;;;;;;;0.57;75.90;96649.94;4997497;28;20185;-68
2023/01/28 04:45:19;;;;;;;12.33;9.50;;;;;;;0.50;75.76;96654.25;4999508;28;20192;-69
2023/01/28 04:47:44;;;;;;;14.80;10.30;;;;;;;0.48;75.74;96652.53;5003142;28;20459;-68
2023/01/28 04:50:09;;;;;;;12.57;8.70;;;;;;;0.54;75.58;96650.78;5004014;28;20215;-68
2023/01/28 04:52:35;;;;;;;14.77;10.43;;;;;;;0.43;76.43;96662.84;4997452;28;20272;-69
2023/01/28 04:55:01;;;;;;;15.07;10.70;;;;;;;0.38;76.74;96662.00;4994593;28;20713;-69
2023/01/28 04:57:27;;;;;;;17.00;11.03;;;;;;;0.19;77.19;96666.28;5000758;28;20180;-69
2023/01/28 04:59:52;;;;;;;13.90;10.20;;;;;;;0.28;76.63;96666.28;5004485;28;20462;-68
2023/01/28 05:02:18;;;;;;;16.93;9.87;;;;;;;0.48;76.66;96663.72;4996950;28;20211;-67
2023/01/28 05:04:43;;;;;;;15.57;11.33;;;;;;;0.49;76.72;96664.56;4992279;28;20571;-69
2023/01/28 05:07:09;;;;;;;14.43;10.53;;;;;;;0.55;75.89;96662.84;4997310;28;20193;-68
2023/01/28 05:09:34;;;;;;;25.13;10.70;;;;;;;0.61;75.74;96674.88;5001947;28;20716;-68
2023/01/28 05:11:59;;;;;;;13.70;9.90;;;;;;;0.38;76.97;96667.16;4999204;28;20218;-68
2023/01/28 05:14:25;;;;;;;12.60;9.97;;;;;;;0.10;77.96;96674.88;4996744;28;20188;-67
2023/01/28 05:16:50;;;;;;;15.37;10.53;;;;;;;-0.06;78.27;96681.72;4993311;28;20197;-68
2023/01/28 05:19:16;;;;;;;18.00;13.00;;;;;;;-0.09;79.67;96680.88;4998757;28;20250;-69
2023/01/28 05:21:41;;;;;;;15.27;12.43;;;;;;;0.18;78.70;96680.03;5001332;28;20214;-69
2023/01/28 05:24:07;;;;;;;19.00;11.30;;;;;;;0.16;78.72;96680.03;4996294;28;20189;-68
2023/01/28 05:26:32;;;;;;;16.67;10.57;;;;;;;0.13;78.44;96679.16;5003184;28;20177;-68
2023/01/28 05:28:58;;;;;;;16.63;10.40;;;;;;;0.24;78.67;96690.38;4996683;28;20264;-69
2023/01/28 05:31:23;;;;;;;14.63;9.80;;;;;;;0.28;77.86;96688.66;5004347;28;20269;-67
2023/01/28 05:33:51;;;;;;;14.83;11.30;;;;;;;-0.27;79.94;96687.69;5000393;28;20184;-68
2023/01/28 05:36:17;;;;;;;16.80;10.97;;;;;;;-0.02;79.80;96693.78;4984593;28;20185;-68
2023/01/28 05:38:42;;;;;;;16.10;11.83;;;;;;;0.19;78.33;96690.38;4992780;28;20916;-69
2023/01/28 05:41:07;;;;;;;15.10;10.27;;;;;;;0.09;78.98;96687.75;4999329;28;20290;-68
2023/01/28 05:43:33;;;;;;;14.57;11.10;;;;;;;0.31;77.64;96689.53;4995247;28;20237;-67
2023/01/28 05:45:58;;;;;;;23.73;12.33;;;;;;;0.25;78.51;96684.34;4996247;28;20677;-70
2023/01/28 05:48:24;;;;;;;17.03;12.00;;;;;;;0.03;78.88;96695.50;5003594;28;20222;-67
2023/01/28 05:50:49;;;;;;;15.43;11.03;;;;;;;-0.31;80.78;96701.41;5005201;28;20523;-69
2023/01/28 05:53:15;;;;;;;16.27;11.77;;;;;;;-0.36;81.39;96686.78;4997658;28;20193;-69
2023/01/28 05:55:40;;;;;;;16.67;11.27;;;;;;;-0.18;80.20;96694.59;4992289;28;20217;-70
2023/01/28 05:58:06;;;;;;;14.93;10.43;;;;;;;-0.43;81.70;96691.06;4993802;28;20196;-68
2023/01/28 06:00:31;;;;;;;20.63;11.10;;;;;;;-0.36;81.74;96692.81;5003168;28;20593;-68
2023/01/28 06:02:57;;;;;;;16.40;10.00;;;;;;;-0.25;81.25;96698.84;5001598;28;20196;-69
2023/01/28 06:05:22;;;;;;;17.30;11.10;;;;;;;-0.19;81.07;96698.00;4988265;28;20607;-66
2023/01/28 06:07:48;;;;;;;18.10;10.97;;;;;;;-0.12;81.45;96699.78;4990627;28;20617;-69
2023/01/28 06:10:16;;;;;;;17.50;11.73;;;;;;;-0.16;80.74;96702.34;4995241;28;20200;-69
2023/01/28 06:12:42;;;;;;;15.10;10.60;;;;;;;-0.23;81.66;96699.72;4999257;28;20191;-69
2023/01/28 06:15:08;;;;;;;19.70;11.33;;;;;;;-0.11;80.77;96703.22;5001347;28;20497;-70
2023/01/28 06:17:34;;;;;;;14.73;11.83;;;;;;;-0.05;80.30;96703.22;5003754;28;20184;-68
2023/01/28 06:19:59;;;;;;;16.60;11.80;;;;;;;-0.21;80.69;96712.66;4997208;28;20488;-67
2023/01/28 06:22:24;;;;;;;15.07;11.10;;;;;;;-0.27;80.70;96710.03;4994667;28;20852;-67
2023/01/28 06:24:50;;;;;;;17.40;11.40;;;;;;;-0.49;81.96;96725.41;4999232;28;20242;-68
2023/01/28 06:27:15;;;;;;;17.90;12.57;;;;;;;-0.20;81.31;96709.19;5000685;28;20247;-68
2023/01/28 06:29:41;;;;;;;20.37;12.77;;;;;;;-0.03;80.19;96719.56;5003994;28;20208;-68
2023/01/28 06:32:06;;;;;;;18.80;12.17;;;;;;;-0.18;80.39;96722.97;5002198;28;20365;-68
2023/01/28 06:34:31;;;;;;;19.20;12.60;;;;;;;-0.20;80.61;96727.25;4991354;28;20259;-68
2023/01/28 06:36:57;;;;;;;15.57;10.97;;;;;;;-0.24;81.06;96731.56;4993552;28;20847;-68
2023/01/28 06:39:23;;;;;;;16.83;11.57;;;;;;;-0.10;80.32;96733.28;4994492;28;20195;-67
2023/01/28 06:41:49;;;;;;;18.60;11.57;;;;;;;-0.19;81.01;96733.25;5001988;28;20194;-69
2023/01/28 06:44:15;;;;;;;16.00;10.40;;;;;;;-0.18;80.51;96735.00;5001697;28;20469;-71
2023/01/28 06:46:40;;;;;;;17.23;12.60;;;;;;;-0.11;80.74;96732.44;4995701;28;20448;-69
2023/01/28 06:49:05;;;;;;;17.27;10.80;;;;;;;0.00;80.02;96745.38;4993003;28;20250;-68
2023/01/28 06:51:31;;;;;;;19.03;12.93;;;;;;;0.19;79.44;96748.88;4997963;28;20303;-68
2023/01/28 06:53:57;;;;;;;17.00;11.53;;;;;;;0.16;78.92;96746.25;4999631;28;20219;-68
2023/01/28 06:56:22;;;;;;;13.60;10.43;;;;;;;-0.07;79.41;96748.78;4996883;28;20184;-70
2023/01/28 06:58:47;;;;;;;19.47;13.37;;;;;;;0.09;79.42;96752.28;4991367;28;20544;-68
2023/01/28 07:01:13;;;;;;;15.67;11.07;;;;;;;0.06;79.22;96758.28;4992249;28;20239;-68
2023/01/28 07:03:38;;;;;;;16.00;12.90;;;;;;;0.30;78.03;96759.22;4998322;28;20242;-68
2023/01/28 07:06:04;;;;;;;20.00;11.80;;;;;;;0.45;77.62;96754.09;5000415;28;20215;-70
2023/01/28 07:08:30;;;;;;;16.20;10.50;;;;;;;0.28;77.49;96764.34;4988505;28;20660;-69
2023/01/28 07:10:55;;;;;;;17.10;11.63;;;;;;;0.49;77.26;96760.94;4995622;28;20196;-69
2023/01/28 07:13:20;;;;;;;17.33;11.77;;;;;;;0.71;76.46;96761.84;4992616;28;20196;-68
2023/01/28 07:15:47;;;;;;;18.40;11.67;;;;;;;0.67;76.34;96764.44;4990587;28;20173;-68
2023/01/28 07:18:13;;;;;;;16.20;11.87;;;;;;;0.46;76.51;96768.69;4997691;28;20830;-68
2023/01/28 07:20:38;;;;;;;25.30;13.30;;;;;;;0.67;77.02;96765.28;5005219;28;20442;-68
2023/01/28 07:23:03;;;;;;;15.70;11.13;;;;;;;0.79;76.60;96767.88;5005489;28;20659;-69
2023/01/28 07:25:30;;;;;;;20.93;11.83;;;;;;;0.82;76.61;96774.75;5005722;28;20203;-67
2023/01/28 07:27:55;;;;;;;15.83;11.13;;;;;;;0.80;75.68;96779.06;5003805;28;20608;-70
2023/01/28 07:30:22;;;;;;;17.67;12.70;;;;;;;0.74;75.94;96785.09;5005285;28;20451;-69
2023/01/28 07:32:55;;;;;;;17.63;11.63;;;;;;;0.48;76.53;96782.47;5005421;28;20576;-70
2023/01/28 07:35:21;;;;;;;18.27;12.20;;;;;;;0.47;77.66;96783.31;5005518;28;20840;-70
2023/01/28 07:37:51;;;;;;;23.43;14.80;;;;;;;0.77;76.83;96785.09;4988367;28;20425;-67
2023/01/28 07:40:16;;;;;;;16.37;12.17;;;;;;;0.66;76.32;96786.78;4984174;28;20304;-69
2023/01/28 07:42:42;;;;;;;16.87;12.03;;;;;;;0.55;76.40;96788.53;4985961;28;20442;-69
2023/01/28 07:45:07;;;;;;;18.50;12.17;;;;;;;0.44;76.79;96783.31;4992973;28;20631;-69
2023/01/28 07:47:33;;;;;;;17.37;13.37;;;;;;;0.45;76.74;96785.06;5004462;28;20191;-67
2023/01/28 07:49:58;;;;;;;17.50;13.80;;;;;;;0.26;77.77;96793.59;4993884;28;20589;-69
2023/01/28 07:52:23;;;;;;;22.90;14.17;;;;;;;0.51;76.85;96795.38;5000514;28;20230;-68
2023/01/28 07:54:49;;;;;;;14.90;11.97;;;;;;;0.50;76.87;96790.25;5004537;28;20279;-68
2023/01/28 07:57:22;;;;;;;19.80;14.20;;;;;;;0.68;75.54;96787.66;4996642;28;20269;-71
2023/01/28 07:59:50;;;;;;;18.77;12.50;;;;;;;0.55;76.17;96794.53;4991072;28;20259;-69
2023/01/28 08:02:17;;;;;;;20.73;12.40;;;;;;;0.61;75.57;96798.84;4998742;28;20562;-67
2023/01/28 08:04:42;;;;;;;19.37;12.73;;;;;;;0.58;75.66;96801.44;4991179;28;21202;-69
2023/01/28 08:07:08;;;;;;;15.43;12.10;;;;;;;0.47;75.67;96803.13;4993890;28;20470;-67
2023/01/28 08:09:33;;;;;;;19.07;12.40;;;;;;;0.58;76.28;96812.63;4993167;28;20205;-68
2023/01/28 08:12:00;;;;;;;16.33;12.70;;;;;;;0.55;75.29;96810.03;4997996;28;20188;-67
2023/01/28 08:14:26;;;;;;;17.40;12.10;;;;;;;0.66;75.29;96816.94;5002533;28;20184;-67
2023/01/28 08:16:51;;;;;;;20.17;12.67;;;;;;;0.59;75.25;96811.78;5005102;28;20422;-70
2023/01/28 08:19:17;;;;;;;19.43;12.77;;;;;;;0.60;75.66;96816.06;5003802;28;20177;-69
2023/01/28 08:21:43;;;;;;;19.80;12.53;;;;;;;0.66;75.24;96816.94;5004964;28;20646;-69
2023/01/28 08:24:08;;;;;;;23.20;14.03;;;;;;;0.88;74.05;96804.91;5005193;28;20176;-69
2023/01/28 08:26:33;;;;;;;17.03;12.13;;;;;;;0.87;73.62;96810.94;5005046;28;20191;-69
2023/01/28 08:28:59;;;;;;;15.33;11.70;;;;;;;0.79;73.42;96806.63;4996515;28;20189;-70
2023/01/28 08:31:24;;;;;;;18.20;12.20;;;;;;;0.51;74.65;96816.03;4996704;28;20203;-69
2023/01/28 08:33:50;;;;;;;18.33;11.83;;;;;;;0.16;76.53;96827.13;5007500;28;20769;-69
2023/01/28 08:36:15;;;;;;;21.90;12.90;;;;;;;0.45;75.73;96823.78;4995840;28;20653;-69
2023/01/28 08:38:42;;;;;;;18.17;12.67;;;;;;;0.26;75.92;96820.31;4994337;28;20268;-70
2023/01/28 08:41:07;;;;;;;17.83;11.47;;;;;;;0.29;76.82;96822.88;4998169;28;20737;-69
2023/01/28 08:43:33;;;;;;;18.70;12.73;;;;;;;0.20;75.81;96820.28;5005206;28;20429;-68
2023/01/28 08:45:58;;;;;;;18.43;13.30;;;;;;;0.35;76.14;96824.59;5003252;28;20273;-69
2023/01/28 08:48:23;;;;;;;18.60;12.43;;;;;;;0.38;75.32;96825.50;5004297;28;20180;-69
2023/01/28 08:50:49;;;;;;;16.33;10.80;;;;;;;0.38;75.47;96834.97;5003478;28;20200;-69
2023/01/28 08:53:17;;;;;;;16.73;11.80;;;;;;;0.24;76.10;96834.03;5003108;28;20204;-69
2023/01/28 08:55:44;;;;;;;17.93;12.03;;;;;;;0.12;76.39;96840.88;5004857;28;20222;-70
2023/01/28 08:58:12;;;;;;;18.07;13.60;;;;;;;0.30;75.91;96839.22;5004261;28;20778;-68
2023/01/28 09:00:37;;;;;;;18.93;12.70;;;;;;;0.27;76.49;96836.63;4998660;28;20463;-67
2023/01/28 09:03:03;;;;;;;26.47;13.20;;;;;;;0.51;76.01;96836.69;4993257;28;21005;-69
2023/01/28 09:05:30;;;;;;;15.70;10.60;;;;;;;0.26;76.29;96840.94;5003820;28;20223;-68
2023/01/28 09:07:56;;;;;;;17.90;12.43;;;;;;;0.31;75.73;96843.53;4994594;28;20725;-69
2023/01/28 09:10:22;;;;;;;24.77;11.90;;;;;;;0.39;75.87;96834.94;4992328;28;20600;-68
2023/01/28 09:12:47;;;;;;;17.20;11.00;;;;;;;0.66;74.88;96845.34;5003422;28;20660;-68
2023/01/28 09:15:13;;;;;;;19.53;13.70;;;;;;;0.41;75.50;96842.72;5005700;28;20207;-69
2023/01/28 09:17:39;;;;;;;16.53;11.13;;;;;;;0.50;75.52;96852.22;5007412;28;20171;-68
2023/01/28 09:20:05;;;;;;;15.77;11.43;;;;;;;0.67;75.50;96845.34;5007031;28;20712;-70
2023/01/28 09:22:31;;;;;;;20.73;11.83;;;;;;;0.67;74.49;96845.34;5005151;28;21004;-69
2023/01/28 09:24:57;;;;;;;17.77;11.50;;;;;;;1.12;73.59;96842.81;5007395;28;20458;-69
2023/01/28 09:27:22;;;;;;;16.20;11.50;;;;;;;0.91;73.93;96856.59;5007259;28;20176;-68
2023/01/28 09:29:47;;;;;;;16.67;11.43;;;;;;;0.53;75.03;96849.63;5006858;28;20195;-69
2023/01/28 09:32:13;;;;;;;18.80;12.53;;;;;;;0.48;76.01;96853.94;5007229;28;20172;-70
2023/01/28 09:34:38;;;;;;;20.03;13.00;;;;;;;0.67;75.19;96852.25;5007077;28;20569;-69
2023/01/28 09:37:04;;;;;;;19.10;11.77;;;;;;;0.67;75.29;96854.84;5005342;28;20176;-69
2023/01/28 09:39:29;;;;;;;17.30;12.57;;;;;;;0.32;75.90;96861.59;5006835;28;20196;-68
2023/01/28 09:42:15;;;;;;;19.03;12.30;;;;;;;0.75;74.54;96866.03;5006743;28;20172;-69
2023/01/28 09:45:11;;;;;;;20.73;12.70;;;;;;;0.91;74.33;96857.44;5006685;28;20211;-68
2023/01/28 09:47:38;;;;;;;18.13;12.20;;;;;;;0.98;73.03;96860.91;5006781;28;20451;-69
2023/01/28 09:50:07;;;;;;;17.10;12.80;;;;;;;0.94;74.02;96857.44;5006725;28;20451;-69
2023/01/28 09:52:35;;;;;;;20.57;13.57;;;;;;;1.25;72.82;96860.94;5005596;28;20998;-68
2023/01/28 09:55:33;;;;;;;14.37;10.67;;;;;;;1.24;72.89;96858.34;5007082;28;21186;-69
2023/01/28 09:57:59;;;;;;;14.00;10.00;;;;;;;1.61;70.63;96860.91;5001486;28;20424;-68
2023/01/28 10:00:46;;;;;;;17.27;11.37;;;;;;;1.17;72.00;96856.59;4987063;28;20440;-69
2023/01/28 10:03:42;;;;;;;14.90;11.47;;;;;;;1.10;73.00;96854.88;4987367;28;20197;-68
2023/01/28 10:06:13;;;;;;;16.77;11.60;;;;;;;1.09;73.32;96861.78;4985478;28;20456;-68
2023/01/28 10:08:57;;;;;;;13.70;10.00;;;;;;;0.97;73.00;96859.16;4985544;28;20500;-69
2023/01/28 10:11:34;;;;;;;18.30;11.47;;;;;;;1.26;72.05;96865.22;4986902;28;20428;-69
2023/01/28 10:14:12;;;;;;;17.10;11.70;;;;;;;0.91;72.58;96862.63;4987123;28;20396;-67
2023/01/28 10:16:41;;;;;;;14.00;9.40;;;;;;;0.87;72.83;96870.34;4986552;28;20423;-68
2023/01/28 10:19:12;;;;;;;14.80;10.77;;;;;;;0.91;72.58;96861.75;4986747;28;20507;-68
2023/01/28 10:21:44;;;;;;;14.30;10.67;;;;;;;0.78;73.65;96858.28;4985186;28;20527;-69
2023/01/28 10:24:09;;;;;;;26.93;13.50;;;;;;;1.18;73.03;96853.16;4985209;28;20444;-69
2023/01/28 10:26:40;;;;;;;15.60;10.20;;;;;;;1.34;71.19;96859.19;4986509;28;20510;-69
2023/01/28 10:29:26;;;;;;;15.00;10.73;;;;;;;1.17;71.86;96854.88;4986376;28;20177;-69
2023/01/28 10:32:13;;;;;;;18.37;11.90;;;;;;;0.98;72.22;96861.75;4985286;28;20416;-68
2023/01/28 10:34:39;;;;;;;66.17;15.13;;;;;;;1.06;72.90;96854.00;4986662;28;20458;-69
2023/01/28 10:37:04;;;;;;;20.20;12.17;;;;;;;1.23;72.56;96854.03;4986525;28;20862;-68
2023/01/28 10:39:30;;;;;;;17.03;12.20;;;;;;;1.45;71.96;96855.72;4986143;28;20215;-70
2023/01/28 10:41:55;;;;;;;14.77;10.00;;;;;;;1.46;71.44;96847.13;4984980;28;20215;-68
2023/01/28 10:44:30;;;;;;;20.47;11.30;;;;;;;1.44;70.63;96842.78;4986220;28;20267;-68
2023/01/28 10:46:59;;;;;;;16.30;10.43;;;;;;;1.46;71.27;96854.91;4984867;28;20172;-69
2023/01/28 10:49:27;;;;;;;19.27;12.37;;;;;;;1.18;71.03;96847.97;4984478;28;20439;-69
2023/01/28 10:51:52;;;;;;;25.17;12.40;;;;;;;1.27;71.15;96841.09;4985936;28;20448;-69
2023/01/28 10:54:24;;;;;;;20.37;11.83;;;;;;;1.48;70.33;96837.63;4986385;28;20505;-70
2023/01/28 10:56:52;;;;;;;14.33;10.13;;;;;;;1.64;68.50;96837.63;4986181;28;20177;-69
2023/01/28 10:59:28;;;;;;;18.87;11.07;;;;;;;1.40;70.23;96849.72;4985846;28;20473;-68
2023/01/28 11:02:34;;;;;;;15.13;10.23;;;;;;;1.30;71.31;96853.19;4986312;28;20403;-69
2023/01/28 11:05:06;;;;;;;17.77;11.10;;;;;;;1.13;69.95;96847.13;4967055;28;20821;-69
2023/01/28 11:07:32;;;;;;;20.20;9.83;;;;;;;1.13;71.07;96835.06;4985887;28;20439;-68
2023/01/28 11:09:58;;;;;;;15.67;11.73;;;;;;;1.08;70.73;96841.94;4984791;28;20518;-68
2023/01/28 11:12:26;;;;;;;21.30;10.43;;;;;;;0.98;71.13;96840.22;4984689;28;20506;-69
2023/01/28 11:14:57;;;;;;;14.97;10.50;;;;;;;0.86;70.95;96848.84;4984662;28;20259;-68
2023/01/28 11:17:28;;;;;;;16.93;10.93;;;;;;;1.30;71.01;96842.84;4984750;28;20412;-67
2023/01/28 11:19:56;;;;;;;14.90;10.30;;;;;;;1.31;70.34;96851.44;4985754;28;20436;-68
2023/01/28 11:22:26;;;;;;;19.33;9.67;;;;;;;1.50;69.52;96844.53;4984559;28;20466;-69
2023/01/28 11:24:52;;;;;;;18.43;12.17;;;;;;;1.35;69.54;96848.00;4984466;28;20452;-68
2023/01/28 11:27:21;;;;;;;17.23;10.70;;;;;;;1.44;69.10;96845.38;4987059;28;20751;-68
2023/01/28 11:29:47;;;;;;;15.60;10.03;;;;;;;1.17;69.45;96848.84;4988420;28;20216;-69
2023/01/28 11:32:20;;;;;;;14.40;9.57;;;;;;;1.17;70.54;96854.03;4989684;28;20424;-69
2023/01/28 11:34:51;;;;;;;16.80;11.30;;;;;;;1.02;70.66;96848.00;4989542;28;20191;-69
2023/01/28 11:37:20;;;;;;;15.90;11.60;;;;;;;1.09;70.55;96848.88;4989439;28;20932;-68
2023/01/28 11:39:46;;;;;;;17.90;12.17;;;;;;;1.24;70.63;96851.44;4989308;28;20554;-69
2023/01/28 11:42:20;;;;;;;14.93;10.50;;;;;;;1.57;69.16;96838.50;4989561;28;20415;-70
2023/01/28 11:44:47;;;;;;;15.93;11.70;;;;;;;1.69;69.13;96828.09;4987931;28;20649;-67
2023/01/28 11:47:34;;;;;;;18.20;10.87;;;;;;;2.01;67.93;96840.97;4989460;28;20420;-68
2023/01/28 11:50:23;;;;;;;14.63;10.53;;;;;;;2.10;66.98;96838.34;4989202;28;20459;-69
2023/01/28 11:53:20;;;;;;;14.70;10.17;;;;;;;2.14;66.28;96826.25;4989432;28;20447;-68
2023/01/28 11:55:55;;;;;;;14.43;10.30;;;;;;;1.78;66.80;96829.81;4987841;28;20412;-69
2023/01/28 11:58:31;;;;;;;18.23;11.37;;;;;;;1.63;67.01;96836.75;4997399;28;20526;-70
2023/01/28 12:01:02;;;;;;;15.63;9.83;;;;;;;2.35;64.64;96843.41;5008193;28;20541;-67
2023/01/28 12:04:15;;;;;;;13.17;10.47;;;;;;;1.81;66.83;96850.50;5007224;28;20418;-69
2023/01/28 12:06:49;;;;;;;17.20;10.00;;;;;;;2.12;66.30;96836.59;5005340;28;20489;-69